<?xml version="1.0" encoding="UTF-8" standalone="no" ?>
<gpx xmlns="http://www.topografix.com/GPX/1/1" xmlns:xsi="http://www.w3.org/2001/XMLSchema-instance" xsi:schemaLocation="http://www.topografix.com/GPX/1/1 http://www.topografix.com/GPX/1/1/gpx.xsd" version="1.1" creator="VisuGPX - https://www.visugpx.com">
  <metadata>
    <name>Vacances 2021</name>
  </metadata>
  <trk>
    <name><![CDATA[Journal actif: 2021-07-24 10:12]]></name>
    <trkseg>
      <trkpt lat="49.15773" lon="5.38544">
        <ele>196.73</ele>
        <time>2021-07-24T12:12:26Z</time>
      </trkpt>
      <trkpt lat="49.15765" lon="5.38516">
        <ele>196.25</ele>
        <time>2021-07-24T12:12:46Z</time>
      </trkpt>
      <trkpt lat="49.1576" lon="5.38499">
        <ele>195.28</ele>
        <time>2021-07-24T12:12:50Z</time>
      </trkpt>
      <trkpt lat="49.15765" lon="5.38479">
        <ele>195.28</ele>
        <time>2021-07-24T12:12:51Z</time>
      </trkpt>
      <trkpt lat="49.15768" lon="5.38477">
        <ele>195.28</ele>
        <time>2021-07-24T12:12:52Z</time>
      </trkpt>
      <trkpt lat="49.15771" lon="5.38475">
        <ele>195.28</ele>
        <time>2021-07-24T12:12:53Z</time>
      </trkpt>
      <trkpt lat="49.15775" lon="5.38474">
        <ele>195.28</ele>
        <time>2021-07-24T12:12:54Z</time>
      </trkpt>
      <trkpt lat="49.158" lon="5.38458">
        <ele>194.32</ele>
        <time>2021-07-24T12:13:01Z</time>
      </trkpt>
      <trkpt lat="49.15802" lon="5.38457">
        <ele>193.84</ele>
        <time>2021-07-24T12:13:02Z</time>
      </trkpt>
      <trkpt lat="49.15805" lon="5.38455">
        <ele>193.84</ele>
        <time>2021-07-24T12:13:03Z</time>
      </trkpt>
      <trkpt lat="49.15804" lon="5.38453">
        <ele>193.84</ele>
        <time>2021-07-24T12:13:04Z</time>
      </trkpt>
      <trkpt lat="49.15803" lon="5.38449">
        <ele>193.84</ele>
        <time>2021-07-24T12:13:05Z</time>
      </trkpt>
      <trkpt lat="49.15801" lon="5.38443">
        <ele>193.36</ele>
        <time>2021-07-24T12:13:06Z</time>
      </trkpt>
      <trkpt lat="49.15775" lon="5.38356">
        <ele>189.04</ele>
        <time>2021-07-24T12:13:19Z</time>
      </trkpt>
      <trkpt lat="49.15744" lon="5.38262">
        <ele>187.11</ele>
        <time>2021-07-24T12:13:29Z</time>
      </trkpt>
      <trkpt lat="49.15704" lon="5.38145">
        <ele>190</ele>
        <time>2021-07-24T12:13:45Z</time>
      </trkpt>
      <trkpt lat="49.15703" lon="5.38141">
        <ele>190.48</ele>
        <time>2021-07-24T12:13:46Z</time>
      </trkpt>
      <trkpt lat="49.15701" lon="5.38136">
        <ele>190.48</ele>
        <time>2021-07-24T12:13:47Z</time>
      </trkpt>
      <trkpt lat="49.157" lon="5.38132">
        <ele>190.48</ele>
        <time>2021-07-24T12:13:48Z</time>
      </trkpt>
      <trkpt lat="49.15692" lon="5.38123">
        <ele>190.48</ele>
        <time>2021-07-24T12:13:49Z</time>
      </trkpt>
      <trkpt lat="49.1569" lon="5.38126">
        <ele>190.48</ele>
        <time>2021-07-24T12:13:50Z</time>
      </trkpt>
      <trkpt lat="49.15687" lon="5.38128">
        <ele>190</ele>
        <time>2021-07-24T12:13:51Z</time>
      </trkpt>
      <trkpt lat="49.15683" lon="5.38132">
        <ele>190</ele>
        <time>2021-07-24T12:13:52Z</time>
      </trkpt>
      <trkpt lat="49.15657" lon="5.38179">
        <ele>192.88</ele>
        <time>2021-07-24T12:14:02Z</time>
      </trkpt>
      <trkpt lat="49.15657" lon="5.3818">
        <ele>192.4</ele>
        <time>2021-07-24T12:14:03Z</time>
      </trkpt>
      <trkpt lat="49.15665" lon="5.38201">
        <ele>192.4</ele>
        <time>2021-07-24T12:14:06Z</time>
      </trkpt>
      <trkpt lat="49.15665" lon="5.38201">
        <ele>192.4</ele>
        <time>2021-07-24T12:14:07Z</time>
      </trkpt>
      <trkpt lat="49.15696" lon="5.38302">
        <ele>189.04</ele>
        <time>2021-07-24T12:14:20Z</time>
      </trkpt>
      <trkpt lat="49.15714" lon="5.38363">
        <ele>188.56</ele>
        <time>2021-07-24T12:14:30Z</time>
      </trkpt>
      <trkpt lat="49.15727" lon="5.384">
        <ele>185.67</ele>
        <time>2021-07-24T12:14:39Z</time>
      </trkpt>
      <trkpt lat="49.15751" lon="5.38472">
        <ele>182.79</ele>
        <time>2021-07-24T12:14:50Z</time>
      </trkpt>
      <trkpt lat="49.15756" lon="5.38486">
        <ele>183.75</ele>
        <time>2021-07-24T12:14:54Z</time>
      </trkpt>
      <trkpt lat="49.15758" lon="5.38494">
        <ele>183.75</ele>
        <time>2021-07-24T12:14:55Z</time>
      </trkpt>
      <trkpt lat="49.15783" lon="5.38571">
        <ele>189.04</ele>
        <time>2021-07-24T12:15:05Z</time>
      </trkpt>
      <trkpt lat="49.15808" lon="5.3864">
        <ele>191.92</ele>
        <time>2021-07-24T12:15:18Z</time>
      </trkpt>
      <trkpt lat="49.15806" lon="5.38644">
        <ele>191.92</ele>
        <time>2021-07-24T12:15:19Z</time>
      </trkpt>
      <trkpt lat="49.15804" lon="5.38649">
        <ele>191.92</ele>
        <time>2021-07-24T12:15:20Z</time>
      </trkpt>
      <trkpt lat="49.15769" lon="5.38734">
        <ele>190</ele>
        <time>2021-07-24T12:15:35Z</time>
      </trkpt>
      <trkpt lat="49.15771" lon="5.38739">
        <ele>190</ele>
        <time>2021-07-24T12:15:36Z</time>
      </trkpt>
      <trkpt lat="49.15771" lon="5.38739">
        <ele>190.48</ele>
        <time>2021-07-24T12:15:37Z</time>
      </trkpt>
      <trkpt lat="49.15786" lon="5.38779">
        <ele>192.4</ele>
        <time>2021-07-24T12:15:48Z</time>
      </trkpt>
      <trkpt lat="49.15786" lon="5.38779">
        <ele>192.88</ele>
        <time>2021-07-24T12:15:52Z</time>
      </trkpt>
      <trkpt lat="49.15789" lon="5.38786">
        <ele>193.36</ele>
        <time>2021-07-24T12:15:53Z</time>
      </trkpt>
      <trkpt lat="49.15793" lon="5.38793">
        <ele>193.84</ele>
        <time>2021-07-24T12:15:54Z</time>
      </trkpt>
      <trkpt lat="49.15795" lon="5.38789">
        <ele>194.32</ele>
        <time>2021-07-24T12:15:55Z</time>
      </trkpt>
      <trkpt lat="49.15797" lon="5.38785">
        <ele>194.32</ele>
        <time>2021-07-24T12:15:56Z</time>
      </trkpt>
      <trkpt lat="49.15799" lon="5.38781">
        <ele>194.8</ele>
        <time>2021-07-24T12:15:57Z</time>
      </trkpt>
      <trkpt lat="49.15831" lon="5.38725">
        <ele>191.92</ele>
        <time>2021-07-24T12:16:09Z</time>
      </trkpt>
      <trkpt lat="49.15871" lon="5.38659">
        <ele>189.04</ele>
        <time>2021-07-24T12:16:22Z</time>
      </trkpt>
      <trkpt lat="49.15911" lon="5.38604">
        <ele>193.84</ele>
        <time>2021-07-24T12:16:34Z</time>
      </trkpt>
      <trkpt lat="49.15924" lon="5.386">
        <ele>195.77</ele>
        <time>2021-07-24T12:16:43Z</time>
      </trkpt>
      <trkpt lat="49.1593" lon="5.386">
        <ele>196.25</ele>
        <time>2021-07-24T12:16:44Z</time>
      </trkpt>
      <trkpt lat="49.15933" lon="5.38604">
        <ele>196.25</ele>
        <time>2021-07-24T12:16:45Z</time>
      </trkpt>
      <trkpt lat="49.15936" lon="5.38612">
        <ele>196.25</ele>
        <time>2021-07-24T12:16:46Z</time>
      </trkpt>
      <trkpt lat="49.15937" lon="5.38618">
        <ele>196.73</ele>
        <time>2021-07-24T12:16:47Z</time>
      </trkpt>
      <trkpt lat="49.15939" lon="5.38625">
        <ele>196.73</ele>
        <time>2021-07-24T12:16:48Z</time>
      </trkpt>
      <trkpt lat="49.1594" lon="5.38633">
        <ele>196.25</ele>
        <time>2021-07-24T12:16:49Z</time>
      </trkpt>
      <trkpt lat="49.15943" lon="5.3864">
        <ele>196.25</ele>
        <time>2021-07-24T12:16:50Z</time>
      </trkpt>
      <trkpt lat="49.15947" lon="5.38648">
        <ele>196.25</ele>
        <time>2021-07-24T12:16:51Z</time>
      </trkpt>
      <trkpt lat="49.15966" lon="5.38687">
        <ele>195.77</ele>
        <time>2021-07-24T12:16:55Z</time>
      </trkpt>
      <trkpt lat="49.1602" lon="5.38792">
        <ele>192.88</ele>
        <time>2021-07-24T12:17:10Z</time>
      </trkpt>
      <trkpt lat="49.16054" lon="5.38865">
        <ele>192.4</ele>
        <time>2021-07-24T12:17:21Z</time>
      </trkpt>
      <trkpt lat="49.16056" lon="5.38867">
        <ele>191.92</ele>
        <time>2021-07-24T12:17:22Z</time>
      </trkpt>
      <trkpt lat="49.16101" lon="5.38948">
        <ele>191.44</ele>
        <time>2021-07-24T12:17:32Z</time>
      </trkpt>
      <trkpt lat="49.16127" lon="5.38998">
        <ele>190.96</ele>
        <time>2021-07-24T12:17:39Z</time>
      </trkpt>
      <trkpt lat="49.1613" lon="5.39003">
        <ele>191.44</ele>
        <time>2021-07-24T12:17:40Z</time>
      </trkpt>
      <trkpt lat="49.16137" lon="5.39014">
        <ele>191.92</ele>
        <time>2021-07-24T12:17:41Z</time>
      </trkpt>
      <trkpt lat="49.16137" lon="5.39014">
        <ele>191.92</ele>
        <time>2021-07-24T12:17:42Z</time>
      </trkpt>
      <trkpt lat="49.16139" lon="5.39015">
        <ele>192.4</ele>
        <time>2021-07-24T12:17:43Z</time>
      </trkpt>
      <trkpt lat="49.16143" lon="5.39004">
        <ele>192.4</ele>
        <time>2021-07-24T12:17:44Z</time>
      </trkpt>
      <trkpt lat="49.16145" lon="5.38999">
        <ele>192.4</ele>
        <time>2021-07-24T12:17:45Z</time>
      </trkpt>
      <trkpt lat="49.16141" lon="5.38982">
        <ele>192.88</ele>
        <time>2021-07-24T12:17:46Z</time>
      </trkpt>
      <trkpt lat="49.16141" lon="5.38982">
        <ele>193.36</ele>
        <time>2021-07-24T12:17:47Z</time>
      </trkpt>
      <trkpt lat="49.16143" lon="5.38975">
        <ele>193.36</ele>
        <time>2021-07-24T12:17:48Z</time>
      </trkpt>
      <trkpt lat="49.16145" lon="5.38968">
        <ele>193.84</ele>
        <time>2021-07-24T12:17:49Z</time>
      </trkpt>
      <trkpt lat="49.16148" lon="5.38959">
        <ele>193.84</ele>
        <time>2021-07-24T12:17:50Z</time>
      </trkpt>
      <trkpt lat="49.16153" lon="5.38941">
        <ele>193.84</ele>
        <time>2021-07-24T12:17:51Z</time>
      </trkpt>
      <trkpt lat="49.16166" lon="5.38894">
        <ele>192.88</ele>
        <time>2021-07-24T12:17:58Z</time>
      </trkpt>
      <trkpt lat="49.16169" lon="5.38886">
        <ele>192.88</ele>
        <time>2021-07-24T12:17:59Z</time>
      </trkpt>
      <trkpt lat="49.16172" lon="5.38878">
        <ele>192.88</ele>
        <time>2021-07-24T12:18:00Z</time>
      </trkpt>
      <trkpt lat="49.16194" lon="5.38815">
        <ele>193.36</ele>
        <time>2021-07-24T12:18:11Z</time>
      </trkpt>
      <trkpt lat="49.16196" lon="5.388">
        <ele>196.25</ele>
        <time>2021-07-24T12:18:24Z</time>
      </trkpt>
      <trkpt lat="49.16196" lon="5.388">
        <ele>196.25</ele>
        <time>2021-07-24T12:28:04Z</time>
      </trkpt>
      <trkpt lat="49.16196" lon="5.388">
        <ele>196.25</ele>
        <time>2021-07-24T12:32:44Z</time>
      </trkpt>
      <trkpt lat="49.16196" lon="5.388">
        <ele>196.25</ele>
        <time>2021-07-24T12:37:34Z</time>
      </trkpt>
    </trkseg>
  </trk>
</gpx>